createdAt,value
2018-12-30T00:01:23.843Z,22.07
2018-12-30T00:03:52.340Z,21.07
2018-12-30T00:06:21.197Z,19.63
2018-12-30T00:08:50.243Z,22.00
2018-12-30T00:11:18.816Z,22.23
2018-12-30T00:13:47.306Z,20.30
2018-12-30T00:16:15.849Z,22.90
2018-12-30T00:18:45.016Z,21.37
2018-12-30T00:21:13.753Z,21.73
2018-12-30T00:23:42.329Z,20.83
2018-12-30T00:26:10.908Z,21.53
2018-12-30T00:28:39.457Z,22.13
2018-12-30T00:31:08.016Z,23.30
2018-12-30T00:33:36.591Z,22.40
2018-12-30T00:36:05.140Z,21.60
2018-12-30T00:38:33.713Z,20.90
2018-12-30T00:41:02.977Z,26.13
2018-12-30T00:43:31.527Z,23.80
2018-12-30T00:46:00.079Z,24.03
2018-12-30T00:48:28.632Z,23.77
2018-12-30T00:50:57.201Z,23.77
2018-12-30T00:53:25.748Z,25.50
2018-12-30T00:55:54.317Z,24.60
2018-12-30T00:58:23.048Z,23.27
2018-12-30T01:00:52.101Z,26.27
2018-12-30T01:03:20.693Z,29.57
2018-12-30T01:05:49.369Z,24.23
2018-12-30T01:08:22.965Z,26.30
2018-12-30T01:10:51.546Z,22.50
2018-12-30T01:13:20.401Z,26.77
2018-12-30T01:15:48.949Z,23.57
2018-12-30T01:18:17.515Z,23.80
2018-12-30T01:20:46.069Z,24.57
2018-12-30T01:23:14.641Z,26.77
2018-12-30T01:25:43.149Z,26.83
2018-12-30T01:28:11.908Z,25.03
2018-12-30T01:30:40.440Z,24.57
2018-12-30T01:33:09.008Z,25.43
2018-12-30T01:35:37.552Z,24.80
2018-12-30T01:38:06.104Z,25.30
2018-12-30T01:40:34.688Z,22.57
2018-12-30T01:43:03.232Z,27.53
2018-12-30T01:45:31.791Z,24.80
2018-12-30T01:48:00.448Z,24.80
2018-12-30T01:50:28.989Z,24.63
2018-12-30T01:52:57.564Z,26.53
2018-12-30T01:55:26.124Z,27.70
2018-12-30T01:57:59.784Z,23.97
2018-12-30T02:00:28.393Z,24.50
2018-12-30T02:02:56.956Z,24.93
2018-12-30T02:05:25.500Z,23.93
2018-12-30T02:07:59.181Z,23.53
2018-12-30T02:10:27.756Z,23.00
2018-12-30T02:12:56.297Z,24.97
2018-12-30T02:15:24.789Z,24.50
2018-12-30T02:18:03.401Z,22.03
2018-12-30T02:20:32.171Z,22.47
2018-12-30T02:23:00.729Z,24.67
2018-12-30T02:25:29.305Z,23.43
2018-12-30T02:27:57.865Z,24.50
2018-12-30T02:30:26.626Z,22.97
2018-12-30T02:32:55.173Z,25.20
2018-12-30T02:35:23.734Z,26.40
2018-12-30T02:37:52.287Z,26.03
2018-12-30T02:40:20.873Z,24.93
2018-12-30T02:42:49.888Z,24.97
2018-12-30T02:45:18.433Z,29.00
2018-12-30T02:47:47.004Z,29.63
2018-12-30T02:50:17.449Z,33.67
2018-12-30T02:52:45.964Z,31.53
2018-12-30T02:55:15.175Z,33.30
2018-12-30T02:57:43.918Z,35.67
2018-12-30T03:00:12.463Z,38.67
2018-12-30T03:02:41.009Z,38.73
2018-12-30T03:05:09.573Z,36.47
2018-12-30T03:07:38.125Z,36.83
2018-12-30T03:10:06.678Z,37.60
2018-12-30T03:12:35.188Z,34.97
2018-12-30T03:15:03.817Z,34.23
2018-12-30T03:17:32.429Z,31.77
2018-12-30T03:20:01.249Z,35.83
2018-12-30T03:22:29.730Z,32.33
2018-12-30T03:24:58.310Z,33.40
2018-12-30T03:27:26.770Z,31.37
2018-12-30T03:29:55.449Z,32.87
2018-12-30T03:32:23.958Z,31.90
2018-12-30T03:34:52.416Z,29.07
2018-12-30T03:37:20.896Z,29.80
2018-12-30T03:39:49.656Z,32.73
2018-12-30T03:42:18.148Z,30.50
2018-12-30T03:44:46.623Z,33.77
2018-12-30T03:47:15.148Z,31.90
2018-12-30T03:49:43.629Z,31.57
2018-12-30T03:52:12.138Z,34.53
2018-12-30T03:54:40.621Z,30.70
2018-12-30T03:57:09.252Z,28.67
2018-12-30T03:59:37.758Z,28.20
2018-12-30T04:02:06.249Z,32.93
2018-12-30T04:04:34.726Z,31.23
2018-12-30T04:07:03.250Z,31.37
2018-12-30T04:09:31.705Z,32.90
2018-12-30T04:12:00.176Z,33.93
2018-12-30T04:14:31.419Z,36.47
2018-12-30T04:16:59.898Z,34.63
2018-12-30T04:19:28.388Z,37.70
2018-12-30T04:21:56.867Z,35.67
2018-12-30T04:24:25.480Z,35.33
2018-12-30T04:26:54.048Z,38.50
2018-12-30T04:29:22.546Z,36.57
2018-12-30T04:31:51.025Z,35.93
2018-12-30T04:34:19.493Z,36.13
2018-12-30T04:36:48.012Z,37.63
2018-12-30T04:39:16.474Z,36.90
2018-12-30T04:41:44.956Z,43.47
2018-12-30T04:44:13.550Z,41.97
2018-12-30T04:46:42.020Z,41.87
2018-12-30T04:49:10.740Z,40.30
2018-12-30T04:51:39.235Z,41.00
2018-12-30T04:54:07.721Z,43.40
2018-12-30T04:56:36.209Z,42.07
2018-12-30T04:59:04.841Z,46.47
2018-12-30T05:01:33.359Z,40.23
2018-12-30T05:04:01.872Z,39.93
2018-12-30T05:06:30.352Z,38.97
2018-12-30T05:08:58.820Z,42.83
2018-12-30T05:11:27.331Z,40.10
2018-12-30T05:13:55.817Z,40.30
2018-12-30T05:16:24.292Z,37.93
2018-12-30T05:18:52.784Z,36.17
2018-12-30T05:21:21.269Z,37.73
2018-12-30T05:23:49.733Z,35.17
2018-12-30T05:26:18.216Z,34.30
2018-12-30T05:28:46.717Z,33.07
2018-12-30T05:31:15.190Z,35.37
2018-12-30T05:33:43.698Z,35.47
2018-12-30T05:36:12.181Z,33.83
2018-12-30T05:38:40.773Z,33.17
2018-12-30T05:41:09.260Z,39.20
2018-12-30T05:43:37.773Z,35.63
2018-12-30T05:46:06.257Z,38.63
2018-12-30T05:48:39.781Z,39.40
2018-12-30T05:51:08.337Z,39.57
2018-12-30T05:53:36.816Z,41.70
2018-12-30T05:56:05.295Z,42.10
2018-12-30T05:58:38.860Z,43.70
2018-12-30T06:01:07.337Z,41.33
2018-12-30T06:03:35.825Z,38.40
2018-12-30T06:06:04.332Z,37.03
2018-12-30T06:08:32.801Z,37.30
2018-12-30T06:11:01.453Z,36.97
2018-12-30T06:13:30.052Z,39.80
2018-12-30T06:15:58.637Z,37.40
2018-12-30T06:18:27.435Z,41.87
2018-12-30T06:20:56.032Z,44.90
2018-12-30T06:23:24.573Z,44.27
2018-12-30T06:25:53.109Z,39.90
2018-12-30T06:28:21.587Z,47.43
2018-12-30T06:30:50.053Z,46.73
2018-12-30T06:33:18.524Z,52.57
2018-12-30T06:35:47.021Z,47.30
2018-12-30T06:38:15.625Z,47.27
2018-12-30T06:40:44.125Z,42.63
2018-12-30T06:43:12.588Z,41.00
2018-12-30T06:45:41.065Z,44.33
2018-12-30T06:48:09.585Z,42.47
2018-12-30T06:50:38.060Z,46.23
2018-12-30T06:53:06.518Z,44.73
2018-12-30T06:55:35.089Z,45.17
2018-12-30T06:58:03.560Z,36.83
2018-12-30T07:00:32.051Z,37.47
2018-12-30T07:03:00.521Z,33.43
2018-12-30T07:05:28.997Z,38.27
2018-12-30T07:07:57.762Z,37.10
2018-12-30T07:10:26.259Z,35.30
2018-12-30T07:12:54.808Z,32.57
2018-12-30T07:15:23.302Z,35.77
2018-12-30T07:17:51.796Z,33.20
2018-12-30T07:20:20.265Z,34.57
2018-12-30T07:22:48.764Z,31.07
2018-12-30T07:25:17.269Z,32.00
2018-12-30T07:27:45.736Z,34.33
2018-12-30T07:30:14.277Z,32.87
2018-12-30T07:32:42.772Z,34.67
2018-12-30T07:35:11.269Z,30.00
2018-12-30T07:37:39.739Z,33.20
2018-12-30T07:40:08.297Z,35.30
2018-12-30T07:42:36.792Z,33.10
2018-12-30T07:45:05.429Z,38.83
2018-12-30T07:47:33.910Z,39.40
2018-12-30T07:50:02.414Z,35.07
2018-12-30T07:52:30.909Z,36.97
2018-12-30T07:54:59.393Z,33.07
2018-12-30T07:57:27.869Z,32.97
2018-12-30T07:59:56.373Z,35.87
2018-12-30T08:02:24.853Z,32.73
2018-12-30T08:04:53.357Z,34.77
2018-12-30T08:07:21.827Z,33.23
2018-12-30T08:09:50.308Z,34.73
2018-12-30T08:12:18.801Z,37.83
2018-12-30T08:14:47.276Z,30.43
2018-12-30T08:17:15.768Z,36.20
2018-12-30T08:19:44.232Z,36.50
2018-12-30T08:22:12.709Z,41.27
2018-12-30T08:24:41.281Z,29.00
2018-12-30T08:27:09.741Z,28.90
2018-12-30T08:29:38.221Z,25.43
2018-12-30T08:32:06.720Z,33.67
2018-12-30T08:34:35.192Z,30.00
2018-12-30T08:37:03.653Z,32.63
2018-12-30T08:39:32.160Z,34.57
2018-12-30T08:42:00.620Z,34.93
2018-12-30T08:44:29.101Z,38.57
2018-12-30T08:46:57.598Z,34.00
2018-12-30T08:49:26.092Z,33.47
2018-12-30T08:51:54.589Z,36.97
2018-12-30T08:54:23.073Z,32.97
2018-12-30T08:56:51.892Z,26.90
2018-12-30T08:59:20.375Z,30.20
2018-12-30T09:01:48.872Z,28.80
2018-12-30T09:04:17.357Z,28.57
2018-12-30T09:06:45.873Z,30.70
2018-12-30T09:09:14.432Z,30.27
2018-12-30T09:11:42.997Z,30.27
2018-12-30T09:14:11.473Z,32.27
2018-12-30T09:16:39.984Z,32.30
2018-12-30T09:19:08.454Z,29.07
2018-12-30T09:21:36.944Z,29.30
2018-12-30T09:24:05.442Z,48.40
2018-12-30T09:26:33.916Z,47.23
2018-12-30T09:29:02.385Z,47.10
2018-12-30T09:31:30.877Z,40.13
2018-12-30T09:33:59.346Z,29.93
2018-12-30T09:36:27.829Z,32.23
2018-12-30T09:38:57.287Z,27.67
2018-12-30T09:41:25.791Z,36.63
2018-12-30T09:43:54.276Z,33.23
2018-12-30T09:46:22.766Z,33.73
2018-12-30T09:48:51.259Z,35.30
2018-12-30T09:51:19.830Z,29.77
2018-12-30T09:53:48.322Z,26.07
2018-12-30T09:56:16.822Z,28.33
2018-12-30T09:58:45.346Z,35.67
2018-12-30T10:01:13.849Z,28.63
2018-12-30T10:03:42.332Z,33.23
2018-12-30T10:06:10.836Z,30.80
2018-12-30T10:08:39.301Z,32.70
2018-12-30T10:11:07.796Z,31.27
2018-12-30T10:13:36.344Z,29.17
2018-12-30T10:16:04.913Z,30.57
2018-12-30T10:18:33.653Z,31.80
2018-12-30T10:21:02.134Z,34.27
2018-12-30T10:23:30.662Z,35.23
2018-12-30T10:25:59.270Z,33.97
2018-12-30T10:28:27.743Z,33.80
2018-12-30T10:30:56.241Z,34.60
2018-12-30T10:33:24.701Z,31.60
2018-12-30T10:35:53.188Z,33.90
2018-12-30T10:38:21.669Z,32.27
2018-12-30T10:40:50.149Z,28.93
2018-12-30T10:43:18.648Z,28.40
2018-12-30T10:45:47.123Z,32.80
2018-12-30T10:48:15.620Z,31.37
2018-12-30T10:50:44.109Z,29.40
2018-12-30T10:53:12.587Z,29.63
2018-12-30T10:55:41.113Z,33.10
2018-12-30T10:58:09.719Z,30.17
2018-12-30T11:00:38.214Z,37.47
2018-12-30T11:03:08.000Z,35.20
2018-12-30T11:05:36.817Z,32.83
2018-12-30T11:08:05.306Z,33.20
2018-12-30T11:10:33.781Z,35.33
2018-12-30T11:13:02.290Z,32.30
2018-12-30T11:15:30.771Z,32.20
2018-12-30T11:17:59.251Z,33.57
2018-12-30T11:20:27.733Z,33.50
2018-12-30T11:22:56.233Z,30.63
2018-12-30T11:25:24.709Z,31.13
2018-12-30T11:27:53.204Z,31.97
2018-12-30T11:30:21.697Z,32.23
2018-12-30T11:32:50.277Z,34.20
2018-12-30T11:35:18.778Z,34.80
2018-12-30T11:37:47.241Z,32.83
2018-12-30T11:40:15.802Z,30.50
2018-12-30T11:42:44.292Z,23.67
2018-12-30T11:45:12.844Z,29.30
2018-12-30T11:47:41.340Z,27.57
2018-12-30T11:50:10.077Z,28.90
2018-12-30T11:52:38.560Z,26.67
2018-12-30T11:55:07.116Z,31.67
2018-12-30T11:57:35.629Z,26.50
2018-12-30T12:00:05.745Z,25.00
2018-12-30T12:02:34.212Z,27.40
2018-12-30T12:05:02.716Z,26.43
2018-12-30T12:07:31.233Z,26.27
2018-12-30T12:09:59.739Z,26.73
2018-12-30T12:12:28.212Z,24.20
2018-12-30T12:14:56.705Z,24.77
2018-12-30T12:17:25.277Z,22.73
2018-12-30T12:19:53.812Z,22.50
2018-12-30T12:22:22.305Z,22.30
2018-12-30T12:24:50.804Z,22.20
2018-12-30T12:27:19.305Z,22.80
2018-12-30T12:29:48.073Z,25.90
2018-12-30T12:32:16.576Z,27.13
2018-12-30T12:34:45.060Z,19.50
2018-12-30T12:37:13.564Z,20.37
2018-12-30T12:39:42.104Z,20.80
2018-12-30T12:42:10.616Z,25.73
2018-12-30T12:44:39.081Z,24.13
2018-12-30T12:47:07.582Z,24.00
2018-12-30T12:49:36.056Z,26.80
2018-12-30T12:52:04.528Z,24.00
2018-12-30T12:54:33.032Z,24.40
2018-12-30T12:57:01.517Z,20.80
2018-12-30T12:59:30.073Z,21.37
2018-12-30T13:01:58.561Z,21.73
2018-12-30T13:04:27.046Z,22.37
2018-12-30T13:06:55.537Z,23.77
2018-12-30T13:09:24.005Z,22.73
2018-12-30T13:11:52.469Z,21.37
2018-12-30T13:14:21.116Z,23.03
2018-12-30T13:16:49.678Z,25.00
2018-12-30T13:19:18.233Z,25.10
2018-12-30T13:21:46.729Z,25.57
2018-12-30T13:24:15.211Z,23.60
2018-12-30T13:26:43.705Z,24.93
2018-12-30T13:29:12.213Z,24.23
2018-12-30T13:31:40.969Z,24.97
2018-12-30T13:34:09.445Z,24.27
2018-12-30T13:36:37.904Z,24.80
2018-12-30T13:39:07.213Z,24.03
2018-12-30T13:41:35.706Z,29.80
2018-12-30T13:44:04.177Z,22.67
2018-12-30T13:46:32.701Z,27.00
2018-12-30T13:49:01.189Z,29.27
2018-12-30T13:51:29.729Z,25.80
2018-12-30T13:53:58.220Z,24.63
2018-12-30T13:56:26.713Z,24.37
2018-12-30T13:58:55.230Z,31.33
2018-12-30T14:01:23.813Z,23.67
2018-12-30T14:03:52.300Z,27.03
2018-12-30T14:06:21.332Z,23.57
2018-12-30T14:08:49.835Z,24.13
2018-12-30T14:11:18.384Z,22.10
2018-12-30T14:13:46.873Z,24.80
2018-12-30T14:16:15.353Z,23.57
2018-12-30T14:18:43.902Z,26.07
2018-12-30T14:21:12.385Z,26.43
2018-12-30T14:23:40.866Z,24.53
2018-12-30T14:26:09.357Z,23.83
2018-12-30T14:28:37.830Z,24.33
2018-12-30T14:31:06.327Z,23.10
2018-12-30T14:33:34.808Z,24.63
2018-12-30T14:36:03.277Z,23.30
2018-12-30T14:38:31.769Z,18.63
2018-12-30T14:41:00.253Z,21.67
2018-12-30T14:43:28.758Z,20.67
2018-12-30T14:45:57.268Z,16.80
2018-12-30T14:48:25.744Z,17.43
2018-12-30T14:50:54.244Z,17.60
2018-12-30T14:53:22.721Z,16.10
2018-12-30T14:55:51.208Z,18.37
2018-12-30T14:58:19.697Z,17.53
2018-12-30T15:00:48.136Z,14.47
2018-12-30T15:03:16.620Z,14.57
2018-12-30T15:05:45.130Z,24.63
2018-12-30T15:08:13.606Z,18.57
2018-12-30T15:10:42.107Z,17.17
2018-12-30T15:13:10.673Z,15.03
2018-12-30T15:15:39.165Z,12.43
2018-12-30T15:18:07.634Z,7.40
2018-12-30T15:20:36.117Z,12.40
2018-12-30T15:23:04.590Z,13.80
2018-12-30T15:25:33.093Z,11.23
2018-12-30T15:28:01.557Z,13.17
2018-12-30T15:30:30.025Z,13.93
2018-12-30T15:32:58.529Z,11.47
2018-12-30T15:35:27.013Z,13.50
2018-12-30T15:37:55.473Z,9.70
2018-12-30T15:40:23.973Z,10.17
2018-12-30T15:42:52.448Z,12.13
2018-12-30T15:45:20.925Z,12.50
2018-12-30T15:47:49.412Z,9.33
2018-12-30T15:50:17.877Z,17.33
2018-12-30T15:52:46.366Z,13.03
2018-12-30T15:55:19.350Z,8.87
2018-12-30T15:57:45.133Z,9.23
2018-12-30T16:00:13.612Z,9.70
2018-12-30T16:02:42.130Z,6.17
2018-12-30T16:05:10.616Z,9.53
2018-12-30T16:07:39.080Z,7.50
2018-12-30T16:10:08.713Z,7.10
2018-12-30T16:12:37.209Z,7.53
2018-12-30T16:15:07.224Z,4.60
2018-12-30T16:17:35.786Z,3.93
2018-12-30T16:20:06.089Z,4.00
2018-12-30T16:22:34.583Z,5.07
2018-12-30T16:25:03.137Z,7.60
2018-12-30T16:27:31.645Z,6.57
2018-12-30T16:30:00.164Z,5.63
2018-12-30T16:32:28.689Z,5.07
2018-12-30T16:34:57.157Z,6.40
2018-12-30T16:37:25.643Z,11.97
2018-12-30T16:39:54.152Z,13.03
2018-12-30T16:42:22.617Z,4.17
2018-12-30T16:44:51.124Z,5.87
2018-12-30T16:47:19.604Z,3.70
2018-12-30T16:49:48.100Z,3.13
2018-12-30T16:52:16.578Z,4.17
2018-12-30T16:54:45.041Z,3.30
2018-12-30T16:57:13.804Z,3.90
2018-12-30T16:59:42.374Z,3.67
2018-12-30T17:02:10.976Z,3.10
2018-12-30T17:04:39.558Z,2.50
2018-12-30T17:07:08.120Z,3.10
2018-12-30T17:09:36.567Z,3.77
2018-12-30T17:12:05.077Z,4.20
2018-12-30T17:14:33.561Z,5.53
2018-12-30T17:17:02.017Z,3.90
2018-12-30T17:19:30.499Z,2.20
2018-12-30T17:21:58.997Z,1.90
2018-12-30T17:24:27.478Z,1.77
2018-12-30T17:26:55.976Z,3.77
2018-12-30T17:29:24.445Z,3.93
2018-12-30T17:31:52.924Z,8.97
2018-12-30T17:34:21.421Z,9.57
2018-12-30T17:36:49.892Z,6.70
2018-12-30T17:39:18.377Z,4.93
2018-12-30T17:41:46.852Z,3.40
2018-12-30T17:44:15.323Z,3.97
2018-12-30T17:46:43.804Z,3.20
2018-12-30T17:49:12.417Z,2.00
2018-12-30T17:51:40.910Z,4.77
2018-12-30T17:54:15.192Z,3.27
2018-12-30T17:56:39.620Z,4.07
2018-12-30T17:59:08.112Z,4.77
2018-12-30T18:01:36.613Z,3.43
2018-12-30T18:04:05.064Z,3.07
2018-12-30T18:06:33.537Z,3.47
2018-12-30T18:09:02.321Z,3.17
2018-12-30T18:11:30.878Z,4.47
2018-12-30T18:13:59.424Z,3.83
2018-12-30T18:16:27.976Z,2.03
2018-12-30T18:18:56.436Z,1.20
2018-12-30T18:21:25.089Z,2.27
2018-12-30T18:23:53.581Z,1.43
2018-12-30T18:26:22.073Z,3.90
2018-12-30T18:28:50.563Z,10.17
2018-12-30T18:31:19.040Z,6.23
2018-12-30T18:33:47.522Z,6.03
2018-12-30T18:36:16.014Z,5.03
2018-12-30T18:38:44.505Z,6.83
2018-12-30T18:41:13.020Z,10.73
2018-12-30T18:43:41.487Z,7.17
2018-12-30T18:46:10.054Z,4.63
2018-12-30T18:48:38.520Z,3.60
2018-12-30T18:51:07.008Z,3.30
2018-12-30T18:53:35.452Z,5.97
2018-12-30T18:56:06.953Z,5.47
2018-12-30T18:58:34.196Z,3.87
2018-12-30T19:01:02.660Z,5.70
2018-12-30T19:03:31.160Z,2.63
2018-12-30T19:05:59.624Z,1.73
2018-12-30T19:08:28.090Z,1.87
2018-12-30T19:10:56.586Z,1.87
2018-12-30T19:13:25.121Z,2.43
2018-12-30T19:15:53.688Z,2.67
2018-12-30T19:18:22.157Z,2.43
2018-12-30T19:20:50.620Z,3.80
2018-12-30T19:23:19.104Z,4.53
2018-12-30T19:25:47.597Z,5.67
2018-12-30T19:28:21.084Z,2.10
2018-12-30T19:30:49.577Z,2.20
2018-12-30T19:33:18.040Z,3.37
2018-12-30T19:35:46.513Z,3.87
2018-12-30T19:38:14.996Z,4.67
2018-12-30T19:40:43.564Z,3.20
2018-12-30T19:43:12.096Z,5.47
2018-12-30T19:45:40.574Z,5.70
2018-12-30T19:48:09.068Z,8.63
2018-12-30T19:50:37.520Z,4.97
2018-12-30T19:53:06.037Z,5.17
2018-12-30T19:55:34.521Z,3.37
2018-12-30T19:58:03.144Z,7.33
2018-12-30T20:00:31.653Z,6.93
2018-12-30T20:03:00.197Z,7.17
2018-12-30T20:05:28.748Z,4.50
2018-12-30T20:07:57.249Z,4.27
2018-12-30T20:10:25.721Z,5.47
2018-12-30T20:12:54.197Z,4.23
2018-12-30T20:15:22.689Z,6.93
2018-12-30T20:17:51.161Z,8.70
2018-12-30T20:20:19.637Z,7.77
2018-12-30T20:22:48.135Z,6.47
2018-12-30T20:25:16.600Z,6.53
2018-12-30T20:27:45.072Z,6.97
2018-12-30T20:30:13.568Z,7.93
2018-12-30T20:32:42.047Z,7.37
2018-12-30T20:35:10.523Z,7.23
2018-12-30T20:37:39.030Z,6.63
2018-12-30T20:40:07.582Z,5.80
2018-12-30T20:42:36.060Z,5.87
2018-12-30T20:45:05.573Z,5.93
2018-12-30T20:47:34.049Z,5.20
2018-12-30T20:50:02.548Z,5.43
2018-12-30T20:52:31.198Z,5.93
2018-12-30T20:54:59.767Z,5.87
2018-12-30T20:57:28.324Z,3.70
2018-12-30T20:59:56.848Z,5.57
2018-12-30T21:02:25.352Z,7.87
2018-12-30T21:04:53.841Z,7.63
2018-12-30T21:07:22.321Z,5.70
2018-12-30T21:09:50.805Z,3.93
2018-12-30T21:12:19.298Z,4.70
2018-12-30T21:14:47.748Z,3.67
2018-12-30T21:17:16.313Z,4.17
2018-12-30T21:19:44.775Z,4.20
2018-12-30T21:22:13.220Z,5.40
2018-12-30T21:24:41.697Z,6.80
2018-12-30T21:27:10.161Z,7.43
2018-12-30T21:29:39.404Z,6.80
2018-12-30T21:32:07.969Z,5.33
2018-12-30T21:34:36.424Z,4.60
2018-12-30T21:37:04.893Z,4.90
2018-12-30T21:39:33.394Z,6.17
2018-12-30T21:42:01.938Z,8.23
2018-12-30T21:44:30.445Z,11.47
2018-12-30T21:46:58.925Z,9.73
2018-12-30T21:49:27.421Z,9.07
2018-12-30T21:51:56.017Z,7.53
2018-12-30T21:54:24.709Z,7.23
2018-12-30T21:56:54.805Z,5.57
2018-12-30T21:59:23.414Z,7.30
2018-12-30T22:01:51.911Z,5.27
2018-12-30T22:04:20.457Z,9.77
2018-12-30T22:06:48.936Z,8.70
2018-12-30T22:09:17.437Z,10.50
2018-12-30T22:11:45.891Z,8.80
2018-12-30T22:14:14.531Z,9.17
2018-12-30T22:16:43.079Z,8.00
2018-12-30T22:19:11.545Z,7.20
2018-12-30T22:21:40.006Z,9.70
2018-12-30T22:24:08.513Z,7.50
2018-12-30T22:26:36.968Z,6.83
2018-12-30T22:29:05.445Z,8.23
2018-12-30T22:31:33.944Z,9.20
2018-12-30T22:34:02.400Z,7.07
2018-12-30T22:36:30.877Z,11.07
2018-12-30T22:38:59.361Z,11.30
2018-12-30T22:41:27.865Z,10.17
2018-12-30T22:43:56.356Z,9.47
2018-12-30T22:46:24.811Z,9.43
2018-12-30T22:48:53.308Z,11.10
2018-12-30T22:51:21.856Z,8.37
2018-12-30T22:53:50.369Z,8.93
2018-12-30T22:56:18.919Z,10.03
2018-12-30T22:58:47.454Z,11.23
2018-12-30T23:01:15.945Z,8.50
2018-12-30T23:03:44.412Z,7.57
2018-12-30T23:06:12.893Z,8.37
2018-12-30T23:08:41.440Z,9.83
2018-12-30T23:11:09.917Z,8.70
2018-12-30T23:13:38.393Z,8.00
2018-12-30T23:16:06.889Z,9.57
2018-12-30T23:18:35.365Z,7.30
2018-12-30T23:21:03.841Z,7.97
2018-12-30T23:23:32.342Z,8.80
2018-12-30T23:26:00.824Z,8.93
2018-12-30T23:28:29.391Z,7.77
2018-12-30T23:30:57.890Z,9.30
2018-12-30T23:33:26.357Z,8.53
2018-12-30T23:35:54.826Z,8.77
2018-12-30T23:38:23.324Z,10.17
2018-12-30T23:40:51.813Z,10.33
2018-12-30T23:43:20.369Z,8.23
2018-12-30T23:45:48.863Z,9.00
2018-12-30T23:48:17.331Z,8.00
2018-12-30T23:50:45.812Z,8.17
2018-12-30T23:53:14.289Z,8.17
2018-12-30T23:55:42.834Z,8.33
2018-12-30T23:58:11.374Z,7.03
